createdAt,value
2024-02-27T00:00:41.951Z,3.99
2024-02-27T00:03:09.111Z,3.91
2024-02-27T00:05:36.076Z,3.62
2024-02-27T00:08:03.068Z,3.54
2024-02-27T00:14:17.330Z,4.36
2024-02-27T00:16:44.248Z,3.84
2024-02-27T00:19:11.604Z,3.63
2024-02-27T00:21:39.068Z,3.94
2024-02-27T00:24:06.180Z,3.44
2024-02-27T00:26:32.963Z,3.44
2024-02-27T00:28:59.800Z,3.40
2024-02-27T00:31:26.618Z,3.45
2024-02-27T00:33:54.962Z,3.96
2024-02-27T00:36:21.953Z,5.12
2024-02-27T00:38:49.292Z,4.89
2024-02-27T00:41:16.190Z,4.92
2024-02-27T00:43:44.452Z,5.56
2024-02-27T00:46:11.736Z,5.65
2024-02-27T00:48:38.785Z,6.07
2024-02-27T00:51:08.513Z,5.93
2024-02-27T00:53:35.732Z,6.09
2024-02-27T00:56:05.966Z,6.75
2024-02-27T00:58:35.080Z,6.98
2024-02-27T01:01:02.511Z,7.09
2024-02-27T01:03:29.475Z,6.02
2024-02-27T01:05:56.877Z,6.18
2024-02-27T01:08:26.745Z,5.89
2024-02-27T01:10:53.652Z,5.11
2024-02-27T01:13:20.889Z,4.80
2024-02-27T01:15:48.965Z,4.66
2024-02-27T01:18:17.146Z,4.92
2024-02-27T01:20:44.033Z,5.66
2024-02-27T01:23:12.297Z,5.05
2024-02-27T01:25:40.037Z,5.10
2024-02-27T01:28:11.600Z,5.50
2024-02-27T01:30:38.462Z,6.11
2024-02-27T01:33:05.675Z,5.61
2024-02-27T01:35:33.788Z,5.80
2024-02-27T01:38:00.629Z,6.82
2024-02-27T01:44:14.133Z,9.37
2024-02-27T01:46:42.770Z,9.39
2024-02-27T01:49:10.421Z,9.43
2024-02-27T01:51:39.813Z,9.76
2024-02-27T01:54:07.074Z,10.32
2024-02-27T01:56:34.864Z,9.90
2024-02-27T01:59:01.621Z,9.87
2024-02-27T02:01:28.627Z,10.55
2024-02-27T02:03:57.771Z,10.85
2024-02-27T02:06:25.249Z,10.81
2024-02-27T02:08:52.681Z,10.56
2024-02-27T02:11:19.579Z,10.51
2024-02-27T02:13:47.462Z,10.68
2024-02-27T02:20:08.867Z,10.55
2024-02-27T02:22:35.835Z,10.84
2024-02-27T02:25:03.082Z,10.71
2024-02-27T02:27:30.149Z,10.99
2024-02-27T02:30:00.253Z,10.78
2024-02-27T02:32:27.844Z,10.97
2024-02-27T02:34:54.709Z,10.96
2024-02-27T02:37:21.876Z,10.61
2024-02-27T02:39:48.987Z,11.19
2024-02-27T02:42:16.141Z,11.52
2024-02-27T02:44:43.104Z,11.48
2024-02-27T02:47:12.682Z,11.74
2024-02-27T02:49:41.895Z,12.20
2024-02-27T02:52:09.383Z,12.71
2024-02-27T02:54:44.607Z,13.27
2024-02-27T02:57:11.598Z,13.97
2024-02-27T02:59:38.877Z,14.00
2024-02-27T03:02:06.367Z,14.00
2024-02-27T03:04:33.611Z,13.87
2024-02-27T03:10:55.325Z,15.06
2024-02-27T03:13:22.108Z,15.77
2024-02-27T03:15:50.342Z,16.33
2024-02-27T03:18:17.285Z,16.56
2024-02-27T03:20:44.188Z,16.34
2024-02-27T03:23:11.013Z,16.34
2024-02-27T03:25:37.923Z,16.47
2024-02-27T03:28:04.862Z,16.41
2024-02-27T03:30:31.799Z,16.50
2024-02-27T03:32:58.922Z,17.09
2024-02-27T03:35:25.912Z,17.14
2024-02-27T03:37:52.712Z,17.26
2024-02-27T03:40:19.537Z,17.16
2024-02-27T03:42:46.386Z,17.69
2024-02-27T03:45:13.506Z,17.87
2024-02-27T03:47:41.272Z,17.19
2024-02-27T03:50:08.680Z,17.61
2024-02-27T03:52:35.614Z,16.74
2024-02-27T03:55:02.673Z,16.43
2024-02-27T03:57:30.050Z,16.20
2024-02-27T03:59:56.967Z,15.77
2024-02-27T04:02:24.022Z,14.61
2024-02-27T04:04:51.330Z,13.80
2024-02-27T04:07:18.364Z,13.72
2024-02-27T04:09:45.753Z,12.82
2024-02-27T04:12:12.865Z,12.33
2024-02-27T04:14:39.660Z,12.44
2024-02-27T04:17:06.495Z,12.38
2024-02-27T04:23:26.415Z,11.86
2024-02-27T04:25:53.731Z,12.01
2024-02-27T04:28:21.442Z,12.02
2024-02-27T04:30:48.547Z,11.94
2024-02-27T04:33:15.458Z,12.28
2024-02-27T04:35:42.817Z,12.12
2024-02-27T04:38:09.675Z,11.95
2024-02-27T04:44:30.776Z,12.15
2024-02-27T04:46:57.525Z,12.37
2024-02-27T04:49:24.485Z,12.36
2024-02-27T04:51:51.778Z,12.31
2024-02-27T04:54:18.652Z,12.32
2024-02-27T04:56:45.546Z,12.69
2024-02-27T04:59:12.924Z,12.49
2024-02-27T05:01:39.762Z,12.79
2024-02-27T05:04:06.642Z,13.03
2024-02-27T05:06:33.579Z,13.21
2024-02-27T05:09:00.644Z,13.63
2024-02-27T05:11:28.472Z,13.39
2024-02-27T05:13:55.365Z,13.56
2024-02-27T05:16:22.587Z,14.00
2024-02-27T05:18:49.664Z,13.69
2024-02-27T05:21:20.860Z,13.77
2024-02-27T05:23:50.192Z,14.41
2024-02-27T05:26:18.377Z,15.06
2024-02-27T05:28:46.236Z,15.07
2024-02-27T05:31:29.268Z,15.25
2024-02-27T05:33:57.194Z,15.24
2024-02-27T05:36:24.867Z,15.13
2024-02-27T05:38:52.330Z,15.91
2024-02-27T05:41:22.022Z,16.28
2024-02-27T05:43:50.162Z,16.18
2024-02-27T05:46:16.967Z,15.32
2024-02-27T05:48:48.750Z,15.97
2024-02-27T05:51:16.081Z,16.05
2024-02-27T05:53:43.198Z,16.28
2024-02-27T05:56:15.618Z,16.52
2024-02-27T05:58:42.932Z,16.40
2024-02-27T06:01:10.786Z,16.66
2024-02-27T06:03:38.128Z,16.89
2024-02-27T06:06:05.879Z,16.18
2024-02-27T06:08:33.043Z,15.91
2024-02-27T06:11:00.217Z,15.68
2024-02-27T06:13:30.361Z,16.28
2024-02-27T06:15:57.845Z,16.38
2024-02-27T06:18:25.282Z,17.66
2024-02-27T06:20:52.639Z,16.39
2024-02-27T06:23:19.603Z,17.30
2024-02-27T06:25:48.035Z,17.31
2024-02-27T06:28:16.668Z,18.66
2024-02-27T06:30:46.362Z,18.87
2024-02-27T06:33:13.967Z,18.88
2024-02-27T06:35:41.570Z,19.50
2024-02-27T06:38:12.413Z,19.44
2024-02-27T06:40:39.577Z,19.60
2024-02-27T06:43:06.769Z,19.22
2024-02-27T06:45:34.263Z,19.37
2024-02-27T06:48:02.714Z,19.05
2024-02-27T06:50:30.049Z,18.01
2024-02-27T06:52:56.903Z,18.23
2024-02-27T06:55:24.822Z,18.49
2024-02-27T06:57:51.928Z,17.77
2024-02-27T07:00:19.736Z,17.69
2024-02-27T07:02:49.282Z,17.29
2024-02-27T07:05:17.675Z,16.57
2024-02-27T07:07:44.639Z,16.87
2024-02-27T07:10:13.145Z,16.81
2024-02-27T07:12:42.415Z,16.52
2024-02-27T07:15:11.228Z,16.80
2024-02-27T07:17:38.099Z,16.18
2024-02-27T07:20:07.607Z,16.16
2024-02-27T07:22:37.184Z,17.88
2024-02-27T07:25:11.150Z,16.36
2024-02-27T07:27:38.489Z,16.28
2024-02-27T07:30:05.832Z,16.07
2024-02-27T07:32:32.670Z,16.29
2024-02-27T07:35:00.255Z,16.00
2024-02-27T07:37:29.607Z,16.09
2024-02-27T07:39:59.216Z,16.22
2024-02-27T07:42:26.103Z,16.04
2024-02-27T07:44:53.410Z,15.60
2024-02-27T07:47:20.213Z,15.98
2024-02-27T07:49:50.465Z,15.85
2024-02-27T07:52:18.793Z,15.99
2024-02-27T07:54:48.713Z,15.59
2024-02-27T07:57:16.875Z,15.20
2024-02-27T07:59:44.159Z,15.66
2024-02-27T08:02:11.122Z,14.95
2024-02-27T08:04:39.855Z,14.81
2024-02-27T08:07:09.627Z,15.34
2024-02-27T08:09:39.537Z,14.17
2024-02-27T08:12:07.719Z,13.93
2024-02-27T08:14:37.536Z,14.52
2024-02-27T08:17:05.512Z,13.70
2024-02-27T08:19:32.559Z,14.06
2024-02-27T08:21:59.741Z,13.49
2024-02-27T08:24:26.984Z,12.58
2024-02-27T08:26:57.112Z,12.19
2024-02-27T08:29:25.533Z,12.74
2024-02-27T08:31:53.506Z,12.33
2024-02-27T08:34:20.950Z,12.70
2024-02-27T08:36:48.180Z,12.81
2024-02-27T08:39:21.324Z,12.35
2024-02-27T08:41:48.636Z,13.32
2024-02-27T08:44:18.282Z,13.00
2024-02-27T08:46:48.228Z,13.81
2024-02-27T08:49:15.944Z,13.23
2024-02-27T08:51:42.939Z,13.80
2024-02-27T08:54:20.683Z,13.71
2024-02-27T08:56:50.369Z,13.04
2024-02-27T08:59:17.486Z,14.08
2024-02-27T09:01:44.475Z,13.92
2024-02-27T09:04:12.669Z,14.83
2024-02-27T09:06:42.896Z,15.98
2024-02-27T09:09:09.878Z,14.52
2024-02-27T09:11:37.795Z,13.79
2024-02-27T09:14:06.128Z,14.78
2024-02-27T09:16:32.945Z,13.28
2024-02-27T09:18:59.979Z,13.48
2024-02-27T09:21:27.532Z,12.95
2024-02-27T09:23:57.829Z,12.63
2024-02-27T09:26:25.241Z,13.05
2024-02-27T09:28:52.076Z,12.91
2024-02-27T09:31:27.694Z,12.55
2024-02-27T09:33:58.638Z,12.60
2024-02-27T09:36:25.658Z,13.02
2024-02-27T09:38:53.929Z,13.42
2024-02-27T09:41:45.067Z,13.23
2024-02-27T09:44:12.311Z,13.66
2024-02-27T09:46:45.135Z,14.55
2024-02-27T09:49:18.797Z,13.84
2024-02-27T09:51:51.566Z,14.35
2024-02-27T09:54:18.404Z,15.05
2024-02-27T09:56:46.769Z,14.89
2024-02-27T09:59:13.582Z,14.54
2024-02-27T10:04:24.563Z,13.88
2024-02-27T10:06:53.767Z,14.08
2024-02-27T10:09:20.650Z,13.39
2024-02-27T10:11:47.946Z,12.93
2024-02-27T10:14:23.050Z,12.16
2024-02-27T10:16:50.124Z,10.80
2024-02-27T10:19:20.069Z,10.49
2024-02-27T10:21:47.241Z,10.63
2024-02-27T10:24:22.954Z,10.87
2024-02-27T10:29:39.467Z,10.69
2024-02-27T10:32:07.390Z,11.62
2024-02-27T10:34:34.366Z,11.37
2024-02-27T10:37:02.476Z,11.02
2024-02-27T10:39:29.815Z,9.73
2024-02-27T10:41:58.862Z,10.54
2024-02-27T10:44:28.302Z,9.36
2024-02-27T10:46:59.198Z,9.75
2024-02-27T10:49:27.239Z,10.69
2024-02-27T10:51:55.086Z,10.71
2024-02-27T10:54:30.083Z,11.28
2024-02-27T10:56:59.840Z,9.42
2024-02-27T10:59:26.744Z,10.72
2024-02-27T11:01:53.670Z,10.69
2024-02-27T11:04:24.237Z,9.85
2024-02-27T11:06:51.889Z,9.06
2024-02-27T11:09:25.537Z,8.39
2024-02-27T11:11:56.442Z,9.40
2024-02-27T11:14:25.776Z,8.84
2024-02-27T11:17:01.146Z,8.59
2024-02-27T11:19:28.384Z,8.95
2024-02-27T11:21:55.214Z,8.47
2024-02-27T11:24:23.029Z,8.44
2024-02-27T11:26:49.898Z,8.76
2024-02-27T11:29:17.469Z,9.31
2024-02-27T11:31:44.567Z,9.04
2024-02-27T11:34:12.383Z,9.07
2024-02-27T11:36:39.473Z,8.59
2024-02-27T11:39:06.858Z,8.94
2024-02-27T11:41:33.982Z,9.10
2024-02-27T11:44:00.771Z,9.29
2024-02-27T11:46:36.894Z,9.14
2024-02-27T11:49:06.327Z,9.01
2024-02-27T11:51:35.950Z,9.11
2024-02-27T11:54:03.306Z,8.97
2024-02-27T11:56:33.443Z,9.35
2024-02-27T11:59:00.253Z,8.95
2024-02-27T12:01:27.561Z,8.77
2024-02-27T12:03:55.699Z,9.22
2024-02-27T12:06:22.713Z,9.21
2024-02-27T12:08:50.226Z,8.35
2024-02-27T12:11:17.921Z,8.82
2024-02-27T12:13:45.844Z,8.42
2024-02-27T12:16:12.709Z,8.75
2024-02-27T12:18:41.128Z,9.07
2024-02-27T12:21:10.303Z,8.56
2024-02-27T12:23:37.536Z,8.12
2024-02-27T12:26:05.699Z,8.24
2024-02-27T12:28:33.175Z,8.21
2024-02-27T12:31:00.901Z,8.21
2024-02-27T12:33:27.955Z,8.30
2024-02-27T12:35:55.829Z,8.47
2024-02-27T12:38:26.426Z,8.61
2024-02-27T12:40:54.652Z,7.74
2024-02-27T12:43:22.102Z,7.89
2024-02-27T12:45:51.985Z,8.07
2024-02-27T12:48:19.172Z,7.66
2024-02-27T12:50:46.119Z,7.69
2024-02-27T12:53:13.921Z,7.31
2024-02-27T12:55:41.550Z,6.85
2024-02-27T12:58:08.458Z,6.80
2024-02-27T13:00:35.931Z,6.66
2024-02-27T13:03:04.021Z,7.08
2024-02-27T13:05:33.295Z,6.60
2024-02-27T13:08:00.375Z,6.34
2024-02-27T13:10:29.077Z,6.27
2024-02-27T13:13:16.333Z,6.11
2024-02-27T13:15:46.768Z,6.30
2024-02-27T13:18:14.583Z,6.44
2024-02-27T13:20:41.696Z,6.21
2024-02-27T13:23:16.410Z,6.13
2024-02-27T13:25:48.522Z,6.74
2024-02-27T13:28:16.059Z,6.61
2024-02-27T13:30:43.552Z,6.79
2024-02-27T13:33:11.004Z,6.42
2024-02-27T13:39:02.019Z,6.83
2024-02-27T13:41:29.164Z,6.21
2024-02-27T13:43:56.073Z,6.07
2024-02-27T13:46:26.144Z,6.22
2024-02-27T13:48:53.569Z,6.16
2024-02-27T13:51:20.581Z,6.23
2024-02-27T13:53:47.483Z,6.25
2024-02-27T13:56:14.855Z,6.33
2024-02-27T13:58:41.613Z,5.96
2024-02-27T14:01:10.131Z,5.98
2024-02-27T14:03:37.137Z,6.21
2024-02-27T14:06:04.689Z,6.30
2024-02-27T14:08:32.851Z,5.99
2024-02-27T14:11:00.848Z,6.26
2024-02-27T14:13:27.945Z,6.13
2024-02-27T14:15:55.232Z,5.93
2024-02-27T14:18:23.794Z,6.18
2024-02-27T14:20:51.120Z,6.17
2024-02-27T14:23:17.949Z,6.34
2024-02-27T14:25:44.881Z,6.51
2024-02-27T14:28:12.091Z,6.70
2024-02-27T14:30:38.963Z,6.45
2024-02-27T14:33:06.045Z,6.59
2024-02-27T14:35:33.052Z,6.78
2024-02-27T14:38:00.539Z,6.87
2024-02-27T14:40:27.355Z,6.67
2024-02-27T14:42:55.559Z,6.72
2024-02-27T14:45:22.749Z,6.38
2024-02-27T14:47:49.624Z,6.39
2024-02-27T14:50:16.794Z,6.09
2024-02-27T14:52:44.025Z,5.94
2024-02-27T14:55:10.850Z,5.83
2024-02-27T14:57:38.242Z,5.71
2024-02-27T15:00:07.867Z,5.37
2024-02-27T15:02:36.113Z,5.11
2024-02-27T15:05:03.030Z,5.07
2024-02-27T15:07:30.027Z,4.72
2024-02-27T15:09:56.986Z,4.88
2024-02-27T15:12:27.498Z,4.62
2024-02-27T15:14:55.541Z,4.50
2024-02-27T15:17:23.171Z,4.73
2024-02-27T15:19:50.705Z,4.86
2024-02-27T15:22:17.894Z,4.85
2024-02-27T15:24:50.824Z,4.72
2024-02-27T15:27:18.949Z,4.78
2024-02-27T15:29:45.878Z,4.92
2024-02-27T15:32:14.023Z,4.96
2024-02-27T15:34:42.381Z,5.04
2024-02-27T15:37:09.212Z,4.95
2024-02-27T15:39:36.331Z,5.23
2024-02-27T15:42:05.104Z,5.44
2024-02-27T15:44:33.766Z,5.23
2024-02-27T15:47:01.333Z,5.39
2024-02-27T15:49:28.665Z,5.79
2024-02-27T15:51:56.562Z,5.56
2024-02-27T15:54:23.482Z,5.86
2024-02-27T15:56:50.319Z,6.18
2024-02-27T15:59:19.975Z,6.18
2024-02-27T16:01:46.940Z,6.46
2024-02-27T16:04:35.056Z,9.52
2024-02-27T16:07:07.644Z,9.91
2024-02-27T16:09:35.672Z,7.92
2024-02-27T16:12:15.239Z,7.23
2024-02-27T16:14:48.744Z,7.54
2024-02-27T16:17:15.577Z,7.68
2024-02-27T16:19:42.684Z,7.76
2024-02-27T16:22:10.162Z,7.76
2024-02-27T16:24:37.125Z,7.66
2024-02-27T16:27:04.058Z,7.41
2024-02-27T16:29:31.565Z,8.33
2024-02-27T16:31:58.618Z,8.07
2024-02-27T16:34:25.593Z,11.38
2024-02-27T16:36:52.851Z,8.99
2024-02-27T16:43:13.272Z,9.69
2024-02-27T16:45:40.115Z,9.49
2024-02-27T16:48:07.793Z,8.80
2024-02-27T16:50:35.277Z,9.41
2024-02-27T16:53:02.107Z,9.31
2024-02-27T16:55:28.918Z,9.50
2024-02-27T16:57:55.771Z,9.63
2024-02-27T17:00:22.596Z,11.59
2024-02-27T17:02:49.435Z,13.01
2024-02-27T17:05:16.972Z,15.91
2024-02-27T17:07:44.389Z,24.76
2024-02-27T17:10:12.719Z,22.63
2024-02-27T17:12:40.718Z,9.92
2024-02-27T17:15:08.003Z,11.04
2024-02-27T17:17:35.202Z,16.54
2024-02-27T17:20:02.185Z,36.28
2024-02-27T17:22:29.489Z,21.45
2024-02-27T17:24:56.363Z,14.02
2024-02-27T17:27:23.564Z,16.32
2024-02-27T17:29:50.410Z,26.27
2024-02-27T17:32:17.455Z,11.10
2024-02-27T17:34:44.508Z,22.93
2024-02-27T17:37:11.426Z,20.79
2024-02-27T17:39:38.302Z,33.14
2024-02-27T17:42:06.690Z,12.87
2024-02-27T17:44:33.975Z,26.48
2024-02-27T17:47:01.420Z,13.22
2024-02-27T17:49:30.083Z,18.27
2024-02-27T17:51:57.043Z,26.50
2024-02-27T17:54:24.514Z,46.50
2024-02-27T17:56:51.431Z,20.56
2024-02-27T17:59:19.525Z,21.87
2024-02-27T18:01:46.487Z,20.45
2024-02-27T18:04:13.421Z,21.21
2024-02-27T18:06:40.384Z,20.50
2024-02-27T18:09:08.650Z,17.31
2024-02-27T18:11:35.810Z,16.26
2024-02-27T18:14:02.682Z,15.35
2024-02-27T18:16:29.482Z,15.28
2024-02-27T18:18:56.823Z,16.13
2024-02-27T18:21:23.773Z,18.40
2024-02-27T18:23:55.890Z,17.28
2024-02-27T18:26:23.437Z,42.24
2024-02-27T18:28:50.301Z,40.29
2024-02-27T18:31:23.873Z,19.80
2024-02-27T18:33:52.106Z,19.86
2024-02-27T18:36:19.070Z,19.64
2024-02-27T18:38:46.095Z,19.61
2024-02-27T18:41:13.190Z,20.18
2024-02-27T18:43:40.558Z,20.09
2024-02-27T18:46:07.490Z,20.70
2024-02-27T18:48:38.101Z,20.70
2024-02-27T18:51:06.072Z,21.20
2024-02-27T18:53:33.309Z,21.90
2024-02-27T18:56:00.527Z,23.04
2024-02-27T18:58:27.686Z,21.51
2024-02-27T19:01:57.432Z,21.95
2024-02-27T19:03:42.393Z,22.52
2024-02-27T19:06:09.294Z,22.57
2024-02-27T19:08:38.846Z,22.59
2024-02-27T19:11:06.212Z,21.67
2024-02-27T19:13:33.845Z,22.52
2024-02-27T19:16:01.110Z,23.17
2024-02-27T19:18:28.143Z,22.43
2024-02-27T19:20:55.986Z,22.52
2024-02-27T19:23:23.050Z,22.58
2024-02-27T19:25:49.873Z,22.82
2024-02-27T19:28:16.647Z,23.41
2024-02-27T19:30:43.897Z,23.73
2024-02-27T19:33:10.901Z,23.62
2024-02-27T19:35:38.353Z,23.44
2024-02-27T19:38:13.718Z,22.87
2024-02-27T19:40:46.557Z,23.96
2024-02-27T19:43:13.851Z,23.06
2024-02-27T19:45:41.309Z,23.59
2024-02-27T19:48:10.044Z,24.08
2024-02-27T19:50:37.049Z,23.63
2024-02-27T19:53:07.426Z,23.74
2024-02-27T19:55:34.593Z,24.09
2024-02-27T19:58:02.772Z,23.53
2024-02-27T20:00:29.796Z,22.87
2024-02-27T20:02:56.926Z,23.20
2024-02-27T20:05:24.777Z,22.94
2024-02-27T20:07:51.548Z,24.39
2024-02-27T20:10:18.683Z,23.87
2024-02-27T20:12:45.524Z,23.62
2024-02-27T20:15:13.932Z,23.14
2024-02-27T20:17:40.736Z,23.53
2024-02-27T20:20:09.009Z,24.39
2024-02-27T20:22:36.238Z,23.53
2024-02-27T20:25:03.861Z,24.25
2024-02-27T20:27:32.659Z,24.18
2024-02-27T20:30:00.235Z,24.33
2024-02-27T20:32:27.909Z,24.22
2024-02-27T20:34:54.861Z,24.42
2024-02-27T20:37:21.872Z,25.14
2024-02-27T20:39:49.369Z,23.92
2024-02-27T20:42:16.251Z,23.65
2024-02-27T20:44:43.147Z,24.32
2024-02-27T20:47:10.254Z,23.87
2024-02-27T20:49:37.348Z,24.08
2024-02-27T20:52:05.093Z,23.87
2024-02-27T20:54:32.237Z,23.98
2024-02-27T20:56:59.444Z,24.14
2024-02-27T20:59:27.497Z,23.52
2024-02-27T21:01:54.633Z,23.21
2024-02-27T21:04:21.713Z,23.60
2024-02-27T21:06:50.096Z,22.94
2024-02-27T21:09:17.459Z,24.23
2024-02-27T21:11:44.480Z,23.67
2024-02-27T21:14:11.427Z,23.48
2024-02-27T21:16:38.693Z,23.96
2024-02-27T21:19:05.672Z,24.23
2024-02-27T21:21:33.582Z,23.79
2024-02-27T21:24:00.698Z,23.92
2024-02-27T21:26:28.040Z,24.50
2024-02-27T21:29:40.444Z,24.30
2024-02-27T21:32:08.503Z,24.67
2024-02-27T21:34:38.037Z,23.68
2024-02-27T21:37:05.573Z,24.90
2024-02-27T21:39:32.410Z,24.79
2024-02-27T21:41:59.303Z,25.68
2024-02-27T21:44:26.416Z,25.58
2024-02-27T21:46:53.276Z,25.54
2024-02-27T21:49:20.799Z,25.61
2024-02-27T21:51:56.857Z,25.49
2024-02-27T21:54:29.794Z,25.90
2024-02-27T21:56:57.027Z,25.75
2024-02-27T21:59:24.586Z,26.31
2024-02-27T22:01:51.560Z,26.20
2024-02-27T22:04:18.391Z,25.36
2024-02-27T22:06:45.266Z,25.90
2024-02-27T22:09:12.308Z,26.04
2024-02-27T22:11:40.161Z,25.84
2024-02-27T22:14:07.120Z,25.48
2024-02-27T22:16:34.178Z,26.54
2024-02-27T22:19:01.300Z,25.72
2024-02-27T22:21:28.623Z,26.91
2024-02-27T22:23:55.385Z,26.72
2024-02-27T22:26:22.316Z,26.13
2024-02-27T22:28:50.568Z,27.01
2024-02-27T22:31:17.436Z,27.29
2024-02-27T22:33:45.008Z,26.51
2024-02-27T22:36:11.885Z,27.62
2024-02-27T22:38:38.792Z,27.80
2024-02-27T22:41:11.692Z,27.29
2024-02-27T22:43:38.531Z,27.53
2024-02-27T22:46:05.374Z,27.25
2024-02-27T22:48:32.785Z,27.80
2024-02-27T22:50:59.607Z,28.41
2024-02-27T22:53:26.422Z,27.53
2024-02-27T22:55:54.065Z,28.89
2024-02-27T22:58:20.904Z,29.83
2024-02-27T23:00:48.408Z,28.63
2024-02-27T23:03:15.300Z,29.28
2024-02-27T23:05:42.520Z,29.35
2024-02-27T23:08:09.403Z,29.49
2024-02-27T23:10:36.699Z,30.08
2024-02-27T23:13:04.060Z,29.46
2024-02-27T23:15:31.040Z,29.92
2024-02-27T23:17:58.991Z,29.70
2024-02-27T23:20:25.981Z,28.96
2024-02-27T23:22:52.726Z,28.58
2024-02-27T23:25:19.539Z,29.57
2024-02-27T23:31:39.299Z,29.02
2024-02-27T23:34:06.488Z,28.97
2024-02-27T23:36:34.356Z,28.70
2024-02-27T23:39:02.217Z,29.09
2024-02-27T23:41:29.058Z,29.06
2024-02-27T23:43:57.023Z,29.39
2024-02-27T23:46:23.955Z,29.50
2024-02-27T23:48:50.881Z,29.35
2024-02-27T23:51:41.058Z,30.45
2024-02-27T23:54:07.968Z,29.59
2024-02-27T23:56:34.919Z,29.69
2024-02-27T23:59:01.872Z,30.27
